sensor_id;sensor_type;location;lat;lon;timestamp;P1;durP1;ratioP1;P2;durP2;ratioP2
59649;SDS011;46162;57.568;25.814;2023-02-01T00:01:05;5.60;;;0.30;;
59649;SDS011;46162;57.568;25.814;2023-02-01T00:03:34;7.20;;;0.25;;
59649;SDS011;46162;57.568;25.814;2023-02-01T00:06:02;5.53;;;0.30;;
59649;SDS011;46162;57.568;25.814;2023-02-01T00:08:31;3.83;;;0.20;;
59649;SDS011;46162;57.568;25.814;2023-02-01T00:11:00;9.07;;;0.43;;
59649;SDS011;46162;57.568;25.814;2023-02-01T00:13:30;7.05;;;0.30;;
59649;SDS011;46162;57.568;25.814;2023-02-01T00:16:05;4.70;;;0.30;;
59649;SDS011;46162;57.568;25.814;2023-02-01T00:18:35;8.38;;;0.22;;
59649;SDS011;46162;57.568;25.814;2023-02-01T00:21:04;3.92;;;0.40;;
59649;SDS011;46162;57.568;25.814;2023-02-01T00:23:33;4.88;;;0.30;;
59649;SDS011;46162;57.568;25.814;2023-02-01T00:26:04;8.18;;;0.50;;
59649;SDS011;46162;57.568;25.814;2023-02-01T00:28:35;7.85;;;0.20;;
59649;SDS011;46162;57.568;25.814;2023-02-01T00:31:05;7.65;;;0.50;;
59649;SDS011;46162;57.568;25.814;2023-02-01T00:33:33;7.65;;;0.30;;
59649;SDS011;46162;57.568;25.814;2023-02-01T00:36:03;11.45;;;0.52;;
59649;SDS011;46162;57.568;25.814;2023-02-01T00:38:33;6.70;;;0.47;;
59649;SDS011;46162;57.568;25.814;2023-02-01T00:41:05;9.07;;;0.43;;
59649;SDS011;46162;57.568;25.814;2023-02-01T00:43:35;8.95;;;0.30;;
59649;SDS011;46162;57.568;25.814;2023-02-01T00:46:06;4.45;;;0.20;;
59649;SDS011;46162;57.568;25.814;2023-02-01T00:48:35;4.60;;;0.20;;
59649;SDS011;46162;57.568;25.814;2023-02-01T00:51:04;6.47;;;0.50;;
59649;SDS011;46162;57.568;25.814;2023-02-01T00:53:34;9.00;;;0.20;;
59649;SDS011;46162;57.568;25.814;2023-02-01T00:56:04;11.20;;;0.60;;
59649;SDS011;46162;57.568;25.814;2023-02-01T00:58:33;8.13;;;0.57;;
59649;SDS011;46162;57.568;25.814;2023-02-01T01:01:04;6.00;;;0.38;;
59649;SDS011;46162;57.568;25.814;2023-02-01T01:03:37;6.43;;;0.45;;
59649;SDS011;46162;57.568;25.814;2023-02-01T01:08:37;9.48;;;0.52;;
59649;SDS011;46162;57.568;25.814;2023-02-01T01:11:06;9.80;;;0.60;;
59649;SDS011;46162;57.568;25.814;2023-02-01T01:13:36;10.02;;;0.50;;
59649;SDS011;46162;57.568;25.814;2023-02-01T01:16:07;12.77;;;0.95;;
59649;SDS011;46162;57.568;25.814;2023-02-01T01:18:38;6.18;;;0.90;;
59649;SDS011;46162;57.568;25.814;2023-02-01T01:21:08;6.10;;;0.70;;
59649;SDS011;46162;57.568;25.814;2023-02-01T01:23:39;10.25;;;0.85;;
59649;SDS011;46162;57.568;25.814;2023-02-01T01:26:08;11.25;;;0.63;;
59649;SDS011;46162;57.568;25.814;2023-02-01T01:28:40;8.98;;;0.60;;
59649;SDS011;46162;57.568;25.814;2023-02-01T01:31:10;8.90;;;0.80;;
59649;SDS011;46162;57.568;25.814;2023-02-01T01:33:40;8.60;;;0.57;;
59649;SDS011;46162;57.568;25.814;2023-02-01T01:36:11;9.25;;;0.60;;
59649;SDS011;46162;57.568;25.814;2023-02-01T01:38:40;10.40;;;0.73;;
59649;SDS011;46162;57.568;25.814;2023-02-01T01:41:11;8.75;;;0.75;;
59649;SDS011;46162;57.568;25.814;2023-02-01T01:43:50;12.05;;;1.13;;
59649;SDS011;46162;57.568;25.814;2023-02-01T01:46:24;9.07;;;1.25;;
59649;SDS011;46162;57.568;25.814;2023-02-01T01:48:56;14.25;;;2.03;;
59649;SDS011;46162;57.568;25.814;2023-02-01T01:51:31;13.45;;;1.98;;
59649;SDS011;46162;57.568;25.814;2023-02-01T01:54:06;9.63;;;1.83;;
59649;SDS011;46162;57.568;25.814;2023-02-01T01:56:39;8.95;;;1.98;;
59649;SDS011;46162;57.568;25.814;2023-02-01T01:59:09;7.53;;;1.88;;
59649;SDS011;46162;57.568;25.814;2023-02-01T02:01:41;7.90;;;1.75;;
59649;SDS011;46162;57.568;25.814;2023-02-01T02:04:10;8.95;;;2.03;;
59649;SDS011;46162;57.568;25.814;2023-02-01T02:06:40;11.57;;;2.20;;
59649;SDS011;46162;57.568;25.814;2023-02-01T02:09:14;11.35;;;2.55;;
59649;SDS011;46162;57.568;25.814;2023-02-01T02:11:44;11.07;;;2.72;;
59649;SDS011;46162;57.568;25.814;2023-02-01T02:14:13;9.80;;;2.65;;
59649;SDS011;46162;57.568;25.814;2023-02-01T02:16:54;13.95;;;2.95;;
59649;SDS011;46162;57.568;25.814;2023-02-01T02:22:46;11.23;;;2.75;;
59649;SDS011;46162;57.568;25.814;2023-02-01T02:25:44;12.35;;;2.80;;
59649;SDS011;46162;57.568;25.814;2023-02-01T02:28:35;12.75;;;2.15;;
59649;SDS011;46162;57.568;25.814;2023-02-01T02:31:44;7.40;;;2.03;;
59649;SDS011;46162;57.568;25.814;2023-02-01T02:34:25;7.70;;;2.40;;
59649;SDS011;46162;57.568;25.814;2023-02-01T02:37:03;9.45;;;1.80;;
59649;SDS011;46162;57.568;25.814;2023-02-01T02:39:41;5.82;;;1.30;;
59649;SDS011;46162;57.568;25.814;2023-02-01T02:42:21;9.88;;;1.77;;
59649;SDS011;46162;57.568;25.814;2023-02-01T02:45:17;10.80;;;1.70;;
59649;SDS011;46162;57.568;25.814;2023-02-01T02:48:19;9.05;;;1.65;;
59649;SDS011;46162;57.568;25.814;2023-02-01T02:50:57;12.80;;;2.50;;
59649;SDS011;46162;57.568;25.814;2023-02-01T02:53:48;8.90;;;2.25;;
59649;SDS011;46162;57.568;25.814;2023-02-01T02:56:38;9.60;;;1.83;;
59649;SDS011;46162;57.568;25.814;2023-02-01T02:59:26;9.48;;;1.75;;
59649;SDS011;46162;57.568;25.814;2023-02-01T03:02:15;9.13;;;2.00;;
59649;SDS011;46162;57.568;25.814;2023-02-01T03:05:03;8.15;;;1.60;;
59649;SDS011;46162;57.568;25.814;2023-02-01T03:10:28;6.78;;;1.13;;
59649;SDS011;46162;57.568;25.814;2023-02-01T03:13:04;8.20;;;0.98;;
59649;SDS011;46162;57.568;25.814;2023-02-01T03:15:36;6.45;;;0.90;;
59649;SDS011;46162;57.568;25.814;2023-02-01T03:18:10;9.55;;;0.70;;
59649;SDS011;46162;57.568;25.814;2023-02-01T03:20:43;8.45;;;0.60;;
59649;SDS011;46162;57.568;25.814;2023-02-01T03:23:17;5.25;;;0.60;;
59649;SDS011;46162;57.568;25.814;2023-02-01T03:25:51;4.55;;;0.40;;
59649;SDS011;46162;57.568;25.814;2023-02-01T03:28:23;5.72;;;0.70;;
59649;SDS011;46162;57.568;25.814;2023-02-01T03:30:56;6.80;;;0.20;;
59649;SDS011;46162;57.568;25.814;2023-02-01T03:33:25;6.35;;;0.40;;
59649;SDS011;46162;57.568;25.814;2023-02-01T03:36:02;5.15;;;0.50;;
59649;SDS011;46162;57.568;25.814;2023-02-01T03:38:40;6.10;;;0.40;;
59649;SDS011;46162;57.568;25.814;2023-02-01T03:41:18;9.07;;;0.37;;
59649;SDS011;46162;57.568;25.814;2023-02-01T03:43:53;9.27;;;0.70;;
59649;SDS011;46162;57.568;25.814;2023-02-01T03:46:28;3.55;;;0.47;;
59649;SDS011;46162;57.568;25.814;2023-02-01T03:49:02;4.53;;;0.30;;
59649;SDS011;46162;57.568;25.814;2023-02-01T03:51:35;5.03;;;0.30;;
59649;SDS011;46162;57.568;25.814;2023-02-01T03:54:10;4.18;;;0.30;;
59649;SDS011;46162;57.568;25.814;2023-02-01T03:56:42;8.75;;;0.35;;
59649;SDS011;46162;57.568;25.814;2023-02-01T03:59:14;6.35;;;0.40;;
59649;SDS011;46162;57.568;25.814;2023-02-01T04:01:43;9.18;;;0.80;;
59649;SDS011;46162;57.568;25.814;2023-02-01T04:04:12;4.63;;;0.40;;
59649;SDS011;46162;57.568;25.814;2023-02-01T04:06:50;6.82;;;0.40;;
59649;SDS011;46162;57.568;25.814;2023-02-01T04:09:22;8.05;;;0.60;;
59649;SDS011;46162;57.568;25.814;2023-02-01T04:11:51;5.88;;;0.30;;
59649;SDS011;46162;57.568;25.814;2023-02-01T04:14:20;4.00;;;0.47;;
59649;SDS011;46162;57.568;25.814;2023-02-01T04:16:49;5.25;;;0.55;;
59649;SDS011;46162;57.568;25.814;2023-02-01T04:19:18;3.63;;;0.80;;
59649;SDS011;46162;57.568;25.814;2023-02-01T04:21:46;4.60;;;0.40;;
59649;SDS011;46162;57.568;25.814;2023-02-01T04:24:15;5.10;;;0.52;;
59649;SDS011;46162;57.568;25.814;2023-02-01T04:26:46;4.88;;;0.55;;
59649;SDS011;46162;57.568;25.814;2023-02-01T04:29:15;7.53;;;0.52;;
59649;SDS011;46162;57.568;25.814;2023-02-01T04:31:43;6.32;;;0.82;;
59649;SDS011;46162;57.568;25.814;2023-02-01T04:34:13;5.93;;;0.50;;
59649;SDS011;46162;57.568;25.814;2023-02-01T04:36:42;6.45;;;0.55;;
59649;SDS011;46162;57.568;25.814;2023-02-01T04:39:13;5.03;;;0.38;;
59649;SDS011;46162;57.568;25.814;2023-02-01T04:41:42;6.50;;;0.57;;
59649;SDS011;46162;57.568;25.814;2023-02-01T04:44:14;5.90;;;0.30;;
59649;SDS011;46162;57.568;25.814;2023-02-01T04:46:44;8.18;;;0.70;;
59649;SDS011;46162;57.568;25.814;2023-02-01T04:49:14;8.07;;;0.47;;
59649;SDS011;46162;57.568;25.814;2023-02-01T04:51:43;4.05;;;0.20;;
59649;SDS011;46162;57.568;25.814;2023-02-01T04:54:12;5.13;;;0.77;;
59649;SDS011;46162;57.568;25.814;2023-02-01T04:56:41;5.13;;;0.90;;
59649;SDS011;46162;57.568;25.814;2023-02-01T04:59:10;6.80;;;0.65;;
59649;SDS011;46162;57.568;25.814;2023-02-01T05:01:41;4.75;;;0.52;;
59649;SDS011;46162;57.568;25.814;2023-02-01T05:04:10;4.78;;;0.60;;
59649;SDS011;46162;57.568;25.814;2023-02-01T05:06:39;8.52;;;0.40;;
59649;SDS011;46162;57.568;25.814;2023-02-01T05:09:07;6.18;;;0.73;;
59649;SDS011;46162;57.568;25.814;2023-02-01T05:11:37;5.25;;;0.43;;
59649;SDS011;46162;57.568;25.814;2023-02-01T05:14:24;5.50;;;0.40;;
59649;SDS011;46162;57.568;25.814;2023-02-01T05:16:55;6.07;;;0.70;;
59649;SDS011;46162;57.568;25.814;2023-02-01T05:19:23;8.97;;;0.80;;
59649;SDS011;46162;57.568;25.814;2023-02-01T05:21:52;8.25;;;0.93;;
59649;SDS011;46162;57.568;25.814;2023-02-01T05:24:21;7.43;;;1.15;;
59649;SDS011;46162;57.568;25.814;2023-02-01T05:26:50;6.22;;;0.90;;
59649;SDS011;46162;57.568;25.814;2023-02-01T05:29:19;8.13;;;1.48;;
59649;SDS011;46162;57.568;25.814;2023-02-01T05:31:47;8.88;;;1.67;;
59649;SDS011;46162;57.568;25.814;2023-02-01T05:34:18;5.25;;;1.40;;
59649;SDS011;46162;57.568;25.814;2023-02-01T05:36:47;8.27;;;1.15;;
59649;SDS011;46162;57.568;25.814;2023-02-01T05:39:15;7.68;;;1.45;;
59649;SDS011;46162;57.568;25.814;2023-02-01T05:41:44;9.88;;;1.63;;
59649;SDS011;46162;57.568;25.814;2023-02-01T05:44:13;8.65;;;2.13;;
59649;SDS011;46162;57.568;25.814;2023-02-01T05:46:43;7.80;;;1.50;;
59649;SDS011;46162;57.568;25.814;2023-02-01T05:49:11;9.52;;;2.00;;
59649;SDS011;46162;57.568;25.814;2023-02-01T05:51:41;12.95;;;1.90;;
59649;SDS011;46162;57.568;25.814;2023-02-01T05:54:10;6.90;;;1.73;;
59649;SDS011;46162;57.568;25.814;2023-02-01T05:56:39;10.63;;;2.20;;
59649;SDS011;46162;57.568;25.814;2023-02-01T05:59:09;7.57;;;1.90;;
59649;SDS011;46162;57.568;25.814;2023-02-01T06:01:38;12.50;;;2.40;;
59649;SDS011;46162;57.568;25.814;2023-02-01T06:04:07;7.20;;;1.75;;
59649;SDS011;46162;57.568;25.814;2023-02-01T06:06:36;12.18;;;2.30;;
59649;SDS011;46162;57.568;25.814;2023-02-01T06:09:07;11.35;;;2.35;;
59649;SDS011;46162;57.568;25.814;2023-02-01T06:11:35;12.23;;;2.00;;
59649;SDS011;46162;57.568;25.814;2023-02-01T06:14:04;12.98;;;2.53;;
59649;SDS011;46162;57.568;25.814;2023-02-01T06:16:34;12.10;;;3.13;;
59649;SDS011;46162;57.568;25.814;2023-02-01T06:19:03;9.68;;;2.15;;
59649;SDS011;46162;57.568;25.814;2023-02-01T06:21:32;11.48;;;2.25;;
59649;SDS011;46162;57.568;25.814;2023-02-01T06:24:01;9.25;;;1.95;;
59649;SDS011;46162;57.568;25.814;2023-02-01T06:26:31;12.18;;;1.95;;
59649;SDS011;46162;57.568;25.814;2023-02-01T06:29:00;8.38;;;2.20;;
59649;SDS011;46162;57.568;25.814;2023-02-01T06:31:29;11.80;;;2.25;;
59649;SDS011;46162;57.568;25.814;2023-02-01T06:33:59;11.60;;;2.60;;
59649;SDS011;46162;57.568;25.814;2023-02-01T06:36:28;12.77;;;2.60;;
59649;SDS011;46162;57.568;25.814;2023-02-01T06:38:57;9.73;;;2.00;;
59649;SDS011;46162;57.568;25.814;2023-02-01T06:41:27;7.68;;;2.15;;
59649;SDS011;46162;57.568;25.814;2023-02-01T06:43:57;8.38;;;1.95;;
59649;SDS011;46162;57.568;25.814;2023-02-01T06:46:26;9.18;;;1.73;;
59649;SDS011;46162;57.568;25.814;2023-02-01T06:48:55;7.82;;;1.73;;
59649;SDS011;46162;57.568;25.814;2023-02-01T06:51:24;8.25;;;1.67;;
59649;SDS011;46162;57.568;25.814;2023-02-01T06:53:55;11.52;;;2.35;;
59649;SDS011;46162;57.568;25.814;2023-02-01T06:56:26;11.40;;;2.53;;
59649;SDS011;46162;57.568;25.814;2023-02-01T06:58:59;12.93;;;2.50;;
59649;SDS011;46162;57.568;25.814;2023-02-01T07:01:32;14.27;;;2.25;;
59649;SDS011;46162;57.568;25.814;2023-02-01T07:04:03;13.32;;;2.45;;
59649;SDS011;46162;57.568;25.814;2023-02-01T07:06:33;12.73;;;2.15;;
59649;SDS011;46162;57.568;25.814;2023-02-01T07:09:01;6.38;;;1.92;;
59649;SDS011;46162;57.568;25.814;2023-02-01T07:11:30;9.25;;;1.80;;
59649;SDS011;46162;57.568;25.814;2023-02-01T07:14:01;10.52;;;1.92;;
59649;SDS011;46162;57.568;25.814;2023-02-01T07:16:30;12.73;;;2.10;;
59649;SDS011;46162;57.568;25.814;2023-02-01T07:18:58;7.82;;;1.38;;
59649;SDS011;46162;57.568;25.814;2023-02-01T07:21:28;10.55;;;1.70;;
59649;SDS011;46162;57.568;25.814;2023-02-01T07:23:57;8.77;;;1.80;;
59649;SDS011;46162;57.568;25.814;2023-02-01T07:26:26;8.65;;;1.35;;
59649;SDS011;46162;57.568;25.814;2023-02-01T07:28:56;8.82;;;2.35;;
59649;SDS011;46162;57.568;25.814;2023-02-01T07:31:26;12.02;;;2.05;;
59649;SDS011;46162;57.568;25.814;2023-02-01T07:33:56;8.57;;;1.45;;
59649;SDS011;46162;57.568;25.814;2023-02-01T07:36:27;10.38;;;1.55;;
59649;SDS011;46162;57.568;25.814;2023-02-01T07:38:57;12.48;;;1.67;;
59649;SDS011;46162;57.568;25.814;2023-02-01T07:41:26;9.75;;;1.70;;
59649;SDS011;46162;57.568;25.814;2023-02-01T07:43:55;9.95;;;1.90;;
59649;SDS011;46162;57.568;25.814;2023-02-01T07:46:25;9.82;;;1.63;;
59649;SDS011;46162;57.568;25.814;2023-02-01T07:48:55;11.60;;;2.03;;
59649;SDS011;46162;57.568;25.814;2023-02-01T07:51:24;8.45;;;1.55;;
59649;SDS011;46162;57.568;25.814;2023-02-01T07:53:53;15.85;;;1.85;;
59649;SDS011;46162;57.568;25.814;2023-02-01T07:56:24;9.73;;;1.30;;
59649;SDS011;46162;57.568;25.814;2023-02-01T07:58:53;8.52;;;1.05;;
59649;SDS011;46162;57.568;25.814;2023-02-01T08:01:23;10.70;;;1.63;;
59649;SDS011;46162;57.568;25.814;2023-02-01T08:03:55;7.10;;;1.48;;
59649;SDS011;46162;57.568;25.814;2023-02-01T08:06:26;9.30;;;1.40;;
59649;SDS011;46162;57.568;25.814;2023-02-01T08:08:58;9.40;;;1.00;;
59649;SDS011;46162;57.568;25.814;2023-02-01T08:11:27;11.02;;;2.10;;
59649;SDS011;46162;57.568;25.814;2023-02-01T08:13:56;10.82;;;1.20;;
59649;SDS011;46162;57.568;25.814;2023-02-01T08:16:26;11.80;;;1.38;;
59649;SDS011;46162;57.568;25.814;2023-02-01T08:18:56;9.82;;;1.60;;
59649;SDS011;46162;57.568;25.814;2023-02-01T08:21:25;13.97;;;1.77;;
59649;SDS011;46162;57.568;25.814;2023-02-01T08:24:04;7.80;;;1.40;;
59649;SDS011;46162;57.568;25.814;2023-02-01T08:26:33;8.95;;;1.80;;
59649;SDS011;46162;57.568;25.814;2023-02-01T08:29:04;14.70;;;2.45;;
59649;SDS011;46162;57.568;25.814;2023-02-01T08:31:34;8.43;;;1.73;;
59649;SDS011;46162;57.568;25.814;2023-02-01T08:34:04;9.52;;;1.75;;
59649;SDS011;46162;57.568;25.814;2023-02-01T08:36:35;11.27;;;2.15;;
59649;SDS011;46162;57.568;25.814;2023-02-01T08:39:05;10.43;;;1.67;;
59649;SDS011;46162;57.568;25.814;2023-02-01T08:41:35;9.63;;;1.90;;
59649;SDS011;46162;57.568;25.814;2023-02-01T08:44:10;12.50;;;2.80;;
59649;SDS011;46162;57.568;25.814;2023-02-01T08:46:42;13.10;;;2.30;;
59649;SDS011;46162;57.568;25.814;2023-02-01T08:49:12;9.27;;;2.38;;
59649;SDS011;46162;57.568;25.814;2023-02-01T08:51:40;7.97;;;2.10;;
59649;SDS011;46162;57.568;25.814;2023-02-01T08:54:09;10.77;;;2.33;;
59649;SDS011;46162;57.568;25.814;2023-02-01T08:56:38;9.63;;;2.60;;
59649;SDS011;46162;57.568;25.814;2023-02-01T08:59:07;16.92;;;2.97;;
59649;SDS011;46162;57.568;25.814;2023-02-01T09:01:37;12.55;;;3.20;;
59649;SDS011;46162;57.568;25.814;2023-02-01T09:04:07;11.43;;;3.00;;
59649;SDS011;46162;57.568;25.814;2023-02-01T09:06:41;13.68;;;2.60;;
59649;SDS011;46162;57.568;25.814;2023-02-01T09:09:10;11.95;;;2.90;;
59649;SDS011;46162;57.568;25.814;2023-02-01T09:11:39;11.20;;;2.83;;
59649;SDS011;46162;57.568;25.814;2023-02-01T09:14:08;14.65;;;3.42;;
59649;SDS011;46162;57.568;25.814;2023-02-01T09:16:38;8.98;;;2.70;;
59649;SDS011;46162;57.568;25.814;2023-02-01T09:19:06;10.93;;;2.53;;
59649;SDS011;46162;57.568;25.814;2023-02-01T09:21:54;13.85;;;3.70;;
59649;SDS011;46162;57.568;25.814;2023-02-01T09:24:23;9.98;;;2.60;;
59649;SDS011;46162;57.568;25.814;2023-02-01T09:26:52;10.10;;;2.72;;
59649;SDS011;46162;57.568;25.814;2023-02-01T09:29:21;13.55;;;2.78;;
59649;SDS011;46162;57.568;25.814;2023-02-01T09:31:49;13.77;;;3.40;;
59649;SDS011;46162;57.568;25.814;2023-02-01T09:34:29;10.70;;;2.38;;
59649;SDS011;46162;57.568;25.814;2023-02-01T09:36:59;10.75;;;2.80;;
59649;SDS011;46162;57.568;25.814;2023-02-01T09:39:28;14.73;;;2.65;;
59649;SDS011;46162;57.568;25.814;2023-02-01T09:41:59;10.70;;;2.67;;
59649;SDS011;46162;57.568;25.814;2023-02-01T09:44:38;13.85;;;2.50;;
59649;SDS011;46162;57.568;25.814;2023-02-01T09:47:20;13.50;;;2.88;;
59649;SDS011;46162;57.568;25.814;2023-02-01T09:49:52;8.05;;;2.20;;
59649;SDS011;46162;57.568;25.814;2023-02-01T09:52:27;10.88;;;2.78;;
59649;SDS011;46162;57.568;25.814;2023-02-01T09:55:03;10.68;;;2.63;;
59649;SDS011;46162;57.568;25.814;2023-02-01T09:57:40;10.45;;;3.03;;
59649;SDS011;46162;57.568;25.814;2023-02-01T10:00:16;9.70;;;2.38;;
59649;SDS011;46162;57.568;25.814;2023-02-01T10:02:49;11.20;;;3.05;;
59649;SDS011;46162;57.568;25.814;2023-02-01T10:05:22;9.00;;;2.83;;
59649;SDS011;46162;57.568;25.814;2023-02-01T10:08:09;9.75;;;2.80;;
59649;SDS011;46162;57.568;25.814;2023-02-01T10:10:45;10.25;;;1.98;;
59649;SDS011;46162;57.568;25.814;2023-02-01T10:13:34;12.52;;;2.15;;
59649;SDS011;46162;57.568;25.814;2023-02-01T10:16:17;13.40;;;2.22;;
59649;SDS011;46162;57.568;25.814;2023-02-01T10:19:04;10.77;;;2.22;;
59649;SDS011;46162;57.568;25.814;2023-02-01T10:21:46;8.40;;;2.22;;
59649;SDS011;46162;57.568;25.814;2023-02-01T10:24:31;9.07;;;2.15;;
59649;SDS011;46162;57.568;25.814;2023-02-01T10:27:12;10.50;;;2.20;;
59649;SDS011;46162;57.568;25.814;2023-02-01T10:29:45;12.40;;;2.25;;
59649;SDS011;46162;57.568;25.814;2023-02-01T10:32:21;12.68;;;2.35;;
59649;SDS011;46162;57.568;25.814;2023-02-01T10:34:55;11.10;;;2.25;;
59649;SDS011;46162;57.568;25.814;2023-02-01T10:37:27;8.95;;;2.10;;
59649;SDS011;46162;57.568;25.814;2023-02-01T10:40:00;7.35;;;1.73;;
59649;SDS011;46162;57.568;25.814;2023-02-01T10:42:37;10.40;;;2.30;;
59649;SDS011;46162;57.568;25.814;2023-02-01T10:45:11;8.27;;;1.67;;
59649;SDS011;46162;57.568;25.814;2023-02-01T10:47:42;7.93;;;1.75;;
59649;SDS011;46162;57.568;25.814;2023-02-01T10:50:14;9.57;;;2.55;;
59649;SDS011;46162;57.568;25.814;2023-02-01T10:52:48;9.77;;;2.20;;
59649;SDS011;46162;57.568;25.814;2023-02-01T10:55:32;9.98;;;2.40;;
59649;SDS011;46162;57.568;25.814;2023-02-01T10:58:07;8.85;;;2.03;;
59649;SDS011;46162;57.568;25.814;2023-02-01T11:00:44;8.35;;;2.17;;
59649;SDS011;46162;57.568;25.814;2023-02-01T11:03:31;12.27;;;2.83;;
59649;SDS011;46162;57.568;25.814;2023-02-01T11:06:02;13.68;;;2.80;;
59649;SDS011;46162;57.568;25.814;2023-02-01T11:08:51;11.52;;;2.85;;
59649;SDS011;46162;57.568;25.814;2023-02-01T11:11:22;9.85;;;2.80;;
59649;SDS011;46162;57.568;25.814;2023-02-01T11:13:55;10.98;;;2.47;;
59649;SDS011;46162;57.568;25.814;2023-02-01T11:16:30;10.70;;;2.88;;
59649;SDS011;46162;57.568;25.814;2023-02-01T11:19:02;11.32;;;2.88;;
59649;SDS011;46162;57.568;25.814;2023-02-01T11:21:32;9.07;;;3.05;;
59649;SDS011;46162;57.568;25.814;2023-02-01T11:24:02;9.77;;;2.65;;
59649;SDS011;46162;57.568;25.814;2023-02-01T11:26:35;8.63;;;2.25;;
59649;SDS011;46162;57.568;25.814;2023-02-01T11:29:10;10.77;;;3.35;;
59649;SDS011;46162;57.568;25.814;2023-02-01T11:31:41;12.57;;;2.72;;
59649;SDS011;46162;57.568;25.814;2023-02-01T11:34:11;7.45;;;1.80;;
59649;SDS011;46162;57.568;25.814;2023-02-01T11:36:43;9.90;;;2.35;;
59649;SDS011;46162;57.568;25.814;2023-02-01T11:39:23;6.38;;;2.35;;
59649;SDS011;46162;57.568;25.814;2023-02-01T11:42:02;7.72;;;2.92;;
59649;SDS011;46162;57.568;25.814;2023-02-01T11:44:34;7.95;;;2.38;;
59649;SDS011;46162;57.568;25.814;2023-02-01T11:47:21;8.85;;;2.63;;
59649;SDS011;46162;57.568;25.814;2023-02-01T11:49:52;9.77;;;2.83;;
59649;SDS011;46162;57.568;25.814;2023-02-01T11:52:29;8.48;;;2.40;;
59649;SDS011;46162;57.568;25.814;2023-02-01T11:55:12;8.40;;;2.22;;
59649;SDS011;46162;57.568;25.814;2023-02-01T11:57:54;10.95;;;2.63;;
59649;SDS011;46162;57.568;25.814;2023-02-01T12:00:45;8.88;;;2.50;;
59649;SDS011;46162;57.568;25.814;2023-02-01T12:03:32;8.30;;;2.17;;
59649;SDS011;46162;57.568;25.814;2023-02-01T12:06:21;9.25;;;2.47;;
59649;SDS011;46162;57.568;25.814;2023-02-01T12:09:03;9.75;;;2.28;;
59649;SDS011;46162;57.568;25.814;2023-02-01T12:11:43;7.63;;;2.83;;
59649;SDS011;46162;57.568;25.814;2023-02-01T12:14:23;6.00;;;1.75;;
59649;SDS011;46162;57.568;25.814;2023-02-01T12:20:11;8.25;;;2.42;;
59649;SDS011;46162;57.568;25.814;2023-02-01T12:22:55;10.30;;;2.25;;
59649;SDS011;46162;57.568;25.814;2023-02-01T12:25:44;9.57;;;2.40;;
59649;SDS011;46162;57.568;25.814;2023-02-01T12:28:38;6.93;;;2.67;;
59649;SDS011;46162;57.568;25.814;2023-02-01T12:31:26;8.43;;;2.63;;
59649;SDS011;46162;57.568;25.814;2023-02-01T12:34:10;9.13;;;2.85;;
59649;SDS011;46162;57.568;25.814;2023-02-01T12:37:01;6.38;;;2.10;;
59649;SDS011;46162;57.568;25.814;2023-02-01T12:39:38;7.70;;;2.75;;
59649;SDS011;46162;57.568;25.814;2023-02-01T12:42:13;8.25;;;3.10;;
59649;SDS011;46162;57.568;25.814;2023-02-01T12:44:47;9.00;;;3.10;;
59649;SDS011;46162;57.568;25.814;2023-02-01T12:47:26;9.75;;;2.90;;
59649;SDS011;46162;57.568;25.814;2023-02-01T12:50:01;5.80;;;2.80;;
59649;SDS011;46162;57.568;25.814;2023-02-01T12:52:35;8.52;;;3.00;;
59649;SDS011;46162;57.568;25.814;2023-02-01T12:55:14;6.10;;;2.97;;
59649;SDS011;46162;57.568;25.814;2023-02-01T12:57:50;7.10;;;2.70;;
59649;SDS011;46162;57.568;25.814;2023-02-01T13:00:23;7.00;;;3.05;;
59649;SDS011;46162;57.568;25.814;2023-02-01T13:03:03;8.38;;;2.60;;
59649;SDS011;46162;57.568;25.814;2023-02-01T13:05:43;6.20;;;2.72;;
59649;SDS011;46162;57.568;25.814;2023-02-01T13:08:17;8.80;;;3.05;;
59649;SDS011;46162;57.568;25.814;2023-02-01T13:10:52;11.50;;;3.25;;
59649;SDS011;46162;57.568;25.814;2023-02-01T13:13:41;8.38;;;2.95;;
59649;SDS011;46162;57.568;25.814;2023-02-01T13:16:19;8.43;;;3.03;;
59649;SDS011;46162;57.568;25.814;2023-02-01T13:18:56;6.65;;;2.78;;
59649;SDS011;46162;57.568;25.814;2023-02-01T13:21:32;7.03;;;2.63;;
59649;SDS011;46162;57.568;25.814;2023-02-01T13:24:06;6.55;;;2.80;;
59649;SDS011;46162;57.568;25.814;2023-02-01T13:26:56;9.23;;;2.72;;
59649;SDS011;46162;57.568;25.814;2023-02-01T13:29:26;7.88;;;2.83;;
59649;SDS011;46162;57.568;25.814;2023-02-01T13:32:01;10.85;;;3.83;;
59649;SDS011;46162;57.568;25.814;2023-02-01T13:35:07;8.05;;;3.35;;
59649;SDS011;46162;57.568;25.814;2023-02-01T13:38:05;10.13;;;4.00;;
59649;SDS011;46162;57.568;25.814;2023-02-01T13:40:58;11.57;;;4.30;;
59649;SDS011;46162;57.568;25.814;2023-02-01T13:43:38;10.50;;;4.20;;
59649;SDS011;46162;57.568;25.814;2023-02-01T13:46:11;7.60;;;3.75;;
59649;SDS011;46162;57.568;25.814;2023-02-01T13:48:45;10.07;;;4.07;;
59649;SDS011;46162;57.568;25.814;2023-02-01T13:51:28;7.88;;;3.28;;
59649;SDS011;46162;57.568;25.814;2023-02-01T13:54:03;11.27;;;2.95;;
59649;SDS011;46162;57.568;25.814;2023-02-01T13:56:39;10.27;;;3.63;;
59649;SDS011;46162;57.568;25.814;2023-02-01T14:08:22;5.97;;;3.22;;
59649;SDS011;46162;57.568;25.814;2023-02-01T14:11:04;9.85;;;3.03;;
59649;SDS011;46162;57.568;25.814;2023-02-01T14:13:33;8.55;;;3.33;;
59649;SDS011;46162;57.568;25.814;2023-02-01T14:16:15;8.50;;;3.38;;
59649;SDS011;46162;57.568;25.814;2023-02-01T14:18:58;8.23;;;2.95;;
59649;SDS011;46162;57.568;25.814;2023-02-01T14:21:29;9.88;;;3.13;;
59649;SDS011;46162;57.568;25.814;2023-02-01T14:24:02;8.80;;;2.78;;
59649;SDS011;46162;57.568;25.814;2023-02-01T14:26:42;8.40;;;3.47;;
59649;SDS011;46162;57.568;25.814;2023-02-01T14:29:20;8.55;;;3.28;;
59649;SDS011;46162;57.568;25.814;2023-02-01T14:34:31;6.60;;;2.88;;
59649;SDS011;46162;57.568;25.814;2023-02-01T14:37:10;9.75;;;3.55;;
59649;SDS011;46162;57.568;25.814;2023-02-01T14:39:54;9.77;;;3.58;;
59649;SDS011;46162;57.568;25.814;2023-02-01T14:42:28;7.45;;;3.13;;
59649;SDS011;46162;57.568;25.814;2023-02-01T14:51:16;6.30;;;3.17;;
59649;SDS011;46162;57.568;25.814;2023-02-01T14:53:47;6.97;;;2.90;;
59649;SDS011;46162;57.568;25.814;2023-02-01T14:56:19;8.00;;;2.90;;
59649;SDS011;46162;57.568;25.814;2023-02-01T14:58:51;6.68;;;3.10;;
59649;SDS011;46162;57.568;25.814;2023-02-01T15:01:26;7.85;;;2.83;;
59649;SDS011;46162;57.568;25.814;2023-02-01T15:03:59;5.68;;;3.10;;
59649;SDS011;46162;57.568;25.814;2023-02-01T15:06:32;10.40;;;4.18;;
59649;SDS011;46162;57.568;25.814;2023-02-01T15:09:07;6.93;;;3.53;;
59649;SDS011;46162;57.568;25.814;2023-02-01T15:11:58;8.00;;;3.30;;
59649;SDS011;46162;57.568;25.814;2023-02-01T15:14:31;7.40;;;3.40;;
59649;SDS011;46162;57.568;25.814;2023-02-01T15:17:01;7.88;;;3.65;;
59649;SDS011;46162;57.568;25.814;2023-02-01T15:19:30;9.38;;;3.42;;
59649;SDS011;46162;57.568;25.814;2023-02-01T15:21:59;9.70;;;3.58;;
59649;SDS011;46162;57.568;25.814;2023-02-01T15:24:29;8.57;;;3.63;;
59649;SDS011;46162;57.568;25.814;2023-02-01T15:27:03;9.83;;;4.30;;
59649;SDS011;46162;57.568;25.814;2023-02-01T15:29:34;7.57;;;3.55;;
59649;SDS011;46162;57.568;25.814;2023-02-01T15:32:02;8.05;;;3.50;;
59649;SDS011;46162;57.568;25.814;2023-02-01T15:34:45;6.53;;;3.45;;
59649;SDS011;46162;57.568;25.814;2023-02-01T15:37:16;9.25;;;4.20;;
59649;SDS011;46162;57.568;25.814;2023-02-01T15:40:04;8.13;;;4.05;;